ROMMA est une association bénévole à but non lucratif. Votre soutien est indispensable : ADHERER à ROMMA ou FAIRE un DON

Taninges - (74, Haute-Savoie)

Vallée du Giffre (635 m)   Longitude: 06° 35' 38" E   Latitude: 46° 06' 21" N Station romma n°98
 

Détail journalier du     <<     >>

Température Precipitation Humidité Pression Vent Dir Rafale Dir. rafale Ensol.
Heure (°C) (mm) (%) (hPa) (km/h) (km/h) (min)
01:00 13.0091101403SE0
02:00 12.7093101302SE0
03:00 11.7093101402SE0
04:00 11.10941014000
05:00 10.5095101403SE0
06:00 9.9095101405SSE0
07:00 9.4096101502S0
08:00 11.4097101503S20
09:00 14.709310151S5SSE40
10:00 19.507110152SSE5SSE60
11:00 22.306010142SSE6E60
12:00 23.306210145OSO16O60
13:00 24.705710139OSO21SO60
14:00 25.9053101312SO23SO60
15:00 26.7049101311SO21SO60
16:00 27.704210129SO19SO60
17:00 28.303810128O18ONO60
18:00 28.004010129O21ONO60
19:00 27.103710128O19ONO50
20:00 24.104910124O11O10
21:00 21.006410132ENE8NE25
22:00 17.3079101403SSO0
23:00 15.7084101403SSO0
minuit 14.9088101303SE0

Graphique du 04-08-2019

 

Serveur OMMA